• Join FlightAware (Why Join?)
  • Login
  • US Flag 
05:19AM EDT


 

Airport Tracker/Info


-or-


 

Live Flight TrackerFlight Track Log ✈ EJM19 ✈ 01-Jul-2013 ✈ KMVY - KTEB

Flight Track Log - Related Links

Times and Time Zones

All times are in EDT time to prevent confusion due to time zone crossing. See the EJM19 flight status page for this flight to view local times or setup timezone preferences in your user account.

Time Position Orientation Groundspeed Altitude Reporting Facility
EDT Latitude Longitude Course Direction KTS MPH feet Rate Location/Type
06:31PM 41.3189 -70.7681 260° West 219 252 10,400  Level Boston Center
06:32PM 41.3808 -70.8658 310° West 260 299 12,900 2,580 Climbing Boston Center
06:33PM 41.4425 -70.9697 308° West 319 367 15,600 1,500 Climbing Boston Center
06:34PM 41.5086 -71.0789 309° West 370 426 16,000 180 Climbing Boston Center
06:35PM 41.6623 -71.2724 298° West  Level FlightAware Approximate
06:35PM 41.5722 -71.1886 308° West 378 435 16,000  Level Boston Center
06:36PM 41.7107 -71.3861 300° West  Level FlightAware Approximate
06:36PM 41.6381 -71.2983 309° West 378 435 16,100  Level Boston Center
06:37PM 41.7017 -71.4058 308° West 378 435 16,000 -60 Descending Boston Center
06:38PM 41.7672 -71.5133 309° West 373 429 16,000  Level Boston Center
06:39PM 41.8139 -71.6381 297° West 373 429 16,000  Level Boston Center
06:40PM 41.8503 -71.7489 294° West 367 422 16,000  Level Boston Center
06:41PM 41.8967 -71.8878 294° West 367 422 16,000  Level Boston Center
06:42PM 41.9369 -72.0158 293° West 373 429 16,000  Level Boston Center
06:43PM 41.9747 -72.1386 293° West 373 429 16,100  Climbing Boston Center
06:44PM 42.0167 -72.2642 294° West 368 423 16,000 -60 Descending Boston Center
06:45PM 42.0564 -72.3869 294° West 368 423 16,000  Level Boston Center
06:46PM 42.0961 -72.5100 294° West 368 423 16,000  Level Boston Center
06:47PM 42.1375 -72.6361 294° West 368 423 16,000  Level Boston Center
06:48PM 42.1581 -72.7650 282° West 362 417 16,000  Level Boston Center
06:49PM 42.1517 -72.8825 266° West 352 405 16,000 -420 Level Boston Center
06:51PM 42.0964 -73.0179 241° Southwest  Level FlightAware Approximate
06:51PM 42.1211 -73.1369 241° Southwest 347 399 14,900  Level Boston Center
06:52PM 42.0806 -73.2625 247° West 342 394 14,100 -480 Descending Boston Center
06:53PM 42.0400 -73.3794 245° Southwest 342 394 14,000 -120 Descending Boston Center
06:54PM 41.9994 -73.4906 244° Southwest 337 388 13,900 -60 Descending Boston Center
06:55PM 41.9608 -73.6044 246° West 337 388 13,900  Level Boston Center
06:56PM 41.9200 -73.7181 244° Southwest 337 388 13,900  Level Boston Center
06:57PM 41.8811 -73.8314 245° Southwest 337 388 13,900 -240 Level Boston Center
06:58PM 41.8444 -73.9394 246° West 332 382 13,500 -780 Descending Boston Center
06:59PM 41.8033 -74.0525 244° Southwest 338 389 12,400 -1,200 Descending Boston Center
07:00PM 41.7642 -74.1572 243° Southwest 331 381 11,200 -1,200 Descending Boston Center
07:01PM 41.7336 -74.2483 246° West 287 330 10,100 -1,020 Descending Boston Center
07:02PM 41.7053 -74.3308 245° Southwest 275 316 9,200 -1,200 Descending Boston Center
07:03PM 41.6417 -74.3931 216° Southwest 257 296 7,800 -1,200 Descending Boston Center
07:04PM 41.5678 -74.4461 208° Southwest 257 296 6,600 -840 Descending Boston Center
07:05PM 41.5044 -74.4914 208° Southwest 257 296 6,000 -240 Descending Boston Center
07:07PM 41.4000 -74.5000 184° South 271 312 6,100 -180 Climbing New York TRACON
07:08PM 41.3500 -74.4333 135° Southeast 275 316 5,600 -540 Descending New York TRACON
07:09PM 41.3000 -74.3667 135° Southeast 259 298 5,100 -960 Descending New York TRACON
07:10PM 41.2333 -74.3000 143° Southeast 269 310 3,700 -1,080 Descending New York TRACON
07:11PM 41.1833 -74.2333 135° Southeast 249 287 3,000 -360 Descending New York TRACON
07:12PM 41.1333 -74.1833 143° Southeast 239 275 3,000  Level New York TRACON
07:13PM 41.1000 -74.1333 131° Southeast 207 238 3,100 -420 Climbing New York TRACON
07:14PM 41.0500 -74.0667 135° Southeast 228 262 2,200 -540 Descending New York TRACON
07:15PM 41.0000 -74.0500 166° South 201 231 2,100 -180 Descending New York TRACON
07:16PM 40.9500 -74.0500 180° South 159 183 1,900 -420 Descending New York TRACON
07:17PM 40.9167 -74.0500 180° South 118 136 1,300 -660 Descending New York TRACON
07:18PM 40.8833 -74.0500 180° South 122 140 600 -720 Descending New York TRACON
07:20PM 40.8500 -74.0500 114° Southeast  Level FlightAware Approximate
07:27PM 40.8501 -74.0608 114° Southeast  Level Estimated
07:28PM 40.8501 -74.0608 114° Southeast  Level Estimated